sensor_id;sensor_type;location;lat;lon;timestamp;pressure;altitude;pressure_sealevel;temperature;humidity
18850;BME280;4989;48.772;9.154;2022-11-21T00:02:35;97244.63;;;5.78;100.00
18850;BME280;4989;48.772;9.154;2022-11-21T00:07:38;97221.59;;;5.73;100.00
18850;BME280;4989;48.772;9.154;2022-11-21T00:12:40;97233.06;;;5.77;100.00
18850;BME280;4989;48.772;9.154;2022-11-21T00:17:43;97225.34;;;5.79;100.00
18850;BME280;4989;48.772;9.154;2022-11-21T00:22:46;97217.13;;;5.63;100.00
18850;BME280;4989;48.772;9.154;2022-11-21T00:27:49;97201.03;;;5.56;100.00
18850;BME280;4989;48.772;9.154;2022-11-21T00:32:52;97198.72;;;5.58;100.00
18850;BME280;4989;48.772;9.154;2022-11-21T00:37:55;97191.91;;;5.49;100.00
18850;BME280;4989;48.772;9.154;2022-11-21T00:43:00;97186.63;;;5.42;100.00
18850;BME280;4989;48.772;9.154;2022-11-21T00:48:03;97177.41;;;5.40;100.00
18850;BME280;4989;48.772;9.154;2022-11-21T00:53:05;97176.72;;;5.36;100.00
18850;BME280;4989;48.772;9.154;2022-11-21T00:58:08;97171.44;;;5.25;100.00
18850;BME280;4989;48.772;9.154;2022-11-21T01:03:10;97172.44;;;5.08;100.00
18850;BME280;4989;48.772;9.154;2022-11-21T01:08:13;97166.34;;;5.03;100.00
18850;BME280;4989;48.772;9.154;2022-11-21T01:13:15;97178.75;;;4.97;100.00
18850;BME280;4989;48.772;9.154;2022-11-21T01:18:18;97182.94;;;4.98;100.00
18850;BME280;4989;48.772;9.154;2022-11-21T01:23:21;97178.31;;;5.02;100.00
18850;BME280;4989;48.772;9.154;2022-11-21T01:28:23;97168.59;;;5.09;100.00
18850;BME280;4989;48.772;9.154;2022-11-21T01:33:26;97159.25;;;5.17;100.00
18850;BME280;4989;48.772;9.154;2022-11-21T01:38:28;97174.25;;;5.18;100.00
18850;BME280;4989;48.772;9.154;2022-11-21T01:43:31;97167.16;;;5.00;100.00
18850;BME280;4989;48.772;9.154;2022-11-21T01:48:44;97174.16;;;4.94;100.00
18850;BME280;4989;48.772;9.154;2022-11-21T01:59:02;97149.22;;;4.90;100.00
18850;BME280;4989;48.772;9.154;2022-11-21T02:04:07;97138.84;;;4.89;100.00
18850;BME280;4989;48.772;9.154;2022-11-21T02:09:09;97138.09;;;4.88;100.00
18850;BME280;4989;48.772;9.154;2022-11-21T02:14:12;97134.16;;;4.93;100.00
18850;BME280;4989;48.772;9.154;2022-11-21T02:25:04;97131.78;;;4.98;100.00
18850;BME280;4989;48.772;9.154;2022-11-21T02:30:09;97132.34;;;4.86;100.00
18850;BME280;4989;48.772;9.154;2022-11-21T02:35:12;97138.91;;;4.85;100.00
18850;BME280;4989;48.772;9.154;2022-11-21T02:40:18;97132.81;;;4.77;100.00
18850;BME280;4989;48.772;9.154;2022-11-21T02:45:32;97122.81;;;4.78;100.00
18850;BME280;4989;48.772;9.154;2022-11-21T02:50:36;97130.06;;;4.85;100.00
18850;BME280;4989;48.772;9.154;2022-11-21T02:55:39;97110.41;;;4.88;100.00
18850;BME280;4989;48.772;9.154;2022-11-21T03:00:42;97107.31;;;4.89;100.00
18850;BME280;4989;48.772;9.154;2022-11-21T03:05:45;97098.97;;;4.80;100.00
18850;BME280;4989;48.772;9.154;2022-11-21T03:10:51;97091.34;;;4.75;100.00
18850;BME280;4989;48.772;9.154;2022-11-21T03:15:53;97091.81;;;4.70;100.00
18850;BME280;4989;48.772;9.154;2022-11-21T03:20:57;97071.41;;;4.69;100.00
18850;BME280;4989;48.772;9.154;2022-11-21T03:26:00;97066.81;;;4.69;100.00
18850;BME280;4989;48.772;9.154;2022-11-21T03:31:02;97076.47;;;4.67;100.00
18850;BME280;4989;48.772;9.154;2022-11-21T03:36:05;97090.63;;;4.71;100.00
18850;BME280;4989;48.772;9.154;2022-11-21T03:41:07;97082.06;;;4.79;100.00
18850;BME280;4989;48.772;9.154;2022-11-21T03:46:31;97088.81;;;4.91;100.00
18850;BME280;4989;48.772;9.154;2022-11-21T03:51:34;97087.25;;;4.94;100.00
18850;BME280;4989;48.772;9.154;2022-11-21T03:56:40;97099.97;;;4.90;100.00
18850;BME280;4989;48.772;9.154;2022-11-21T04:01:42;97088.81;;;4.91;100.00
18850;BME280;4989;48.772;9.154;2022-11-21T04:06:45;97090.34;;;4.92;100.00
18850;BME280;4989;48.772;9.154;2022-11-21T04:11:48;97092.16;;;4.99;100.00
18850;BME280;4989;48.772;9.154;2022-11-21T04:16:50;97093.28;;;5.01;100.00
18850;BME280;4989;48.772;9.154;2022-11-21T04:21:53;97082.88;;;5.03;100.00
18850;BME280;4989;48.772;9.154;2022-11-21T04:26:56;97077.06;;;5.09;100.00
18850;BME280;4989;48.772;9.154;2022-11-21T04:31:58;97081.72;;;5.04;100.00
18850;BME280;4989;48.772;9.154;2022-11-21T04:37:00;97082.38;;;5.12;100.00
18850;BME280;4989;48.772;9.154;2022-11-21T04:42:08;97091.22;;;5.13;100.00
18850;BME280;4989;48.772;9.154;2022-11-21T04:47:11;97073.44;;;5.19;100.00
18850;BME280;4989;48.772;9.154;2022-11-21T04:52:13;97072.97;;;5.24;100.00
18850;BME280;4989;48.772;9.154;2022-11-21T04:57:16;97079.81;;;5.28;100.00
18850;BME280;4989;48.772;9.154;2022-11-21T05:02:22;97079.13;;;5.24;100.00
18850;BME280;4989;48.772;9.154;2022-11-21T05:07:24;97079.88;;;5.25;100.00
18850;BME280;4989;48.772;9.154;2022-11-21T05:12:27;97073.78;;;5.21;100.00
18850;BME280;4989;48.772;9.154;2022-11-21T05:17:48;97070.72;;;5.19;100.00
18850;BME280;4989;48.772;9.154;2022-11-21T05:22:51;97077.31;;;5.14;100.00
18850;BME280;4989;48.772;9.154;2022-11-21T05:27:56;97077.75;;;5.13;100.00
18850;BME280;4989;48.772;9.154;2022-11-21T05:32:59;97064.66;;;5.15;100.00
18850;BME280;4989;48.772;9.154;2022-11-21T05:38:01;97076.94;;;5.16;100.00
18850;BME280;4989;48.772;9.154;2022-11-21T05:43:05;97099.53;;;5.22;100.00
18850;BME280;4989;48.772;9.154;2022-11-21T05:48:26;97097.22;;;5.24;100.00
18850;BME280;4989;48.772;9.154;2022-11-21T05:53:28;97108.25;;;5.33;100.00
18850;BME280;4989;48.772;9.154;2022-11-21T05:58:31;97113.63;;;5.33;100.00
18850;BME280;4989;48.772;9.154;2022-11-21T06:03:38;97105.09;;;5.62;100.00
18850;BME280;4989;48.772;9.154;2022-11-21T06:08:44;97102.88;;;6.04;100.00
18850;BME280;4989;48.772;9.154;2022-11-21T06:13:50;97103.81;;;5.93;100.00
18850;BME280;4989;48.772;9.154;2022-11-21T06:18:53;97100.66;;;5.75;100.00
18850;BME280;4989;48.772;9.154;2022-11-21T06:24:00;97102.97;;;5.73;100.00
18850;BME280;4989;48.772;9.154;2022-11-21T06:29:02;97102.97;;;5.73;100.00
18850;BME280;4989;48.772;9.154;2022-11-21T06:34:04;97111.47;;;5.71;100.00
18850;BME280;4989;48.772;9.154;2022-11-21T06:39:10;97113.06;;;5.69;100.00
18850;BME280;4989;48.772;9.154;2022-11-21T06:44:12;97109.41;;;5.56;100.00
18850;BME280;4989;48.772;9.154;2022-11-21T06:49:14;97107.66;;;5.45;100.00
18850;BME280;4989;48.772;9.154;2022-11-21T06:54:17;97113.63;;;5.33;100.00
18850;BME280;4989;48.772;9.154;2022-11-21T06:59:20;97126.72;;;5.31;100.00
18850;BME280;4989;48.772;9.154;2022-11-21T07:04:22;97126.47;;;5.22;100.00
18850;BME280;4989;48.772;9.154;2022-11-21T07:09:25;97111.59;;;5.14;100.00
18850;BME280;4989;48.772;9.154;2022-11-21T07:14:34;97117.59;;;5.25;100.00
18850;BME280;4989;48.772;9.154;2022-11-21T07:19:37;97111.13;;;5.19;100.00
18850;BME280;4989;48.772;9.154;2022-11-21T07:24:42;97114.13;;;5.51;100.00
18850;BME280;4989;48.772;9.154;2022-11-21T07:29:44;97115.50;;;5.60;100.00
18850;BME280;4989;48.772;9.154;2022-11-21T07:34:47;97113.72;;;5.26;100.00
18850;BME280;4989;48.772;9.154;2022-11-21T07:39:50;97110.88;;;5.10;100.00
18850;BME280;4989;48.772;9.154;2022-11-21T07:44:52;97116.25;;;5.10;100.00
18850;BME280;4989;48.772;9.154;2022-11-21T07:49:55;97108.53;;;5.39;100.00
18850;BME280;4989;48.772;9.154;2022-11-21T07:55:00;97117.69;;;5.18;100.00
18850;BME280;4989;48.772;9.154;2022-11-21T08:00:07;97122.47;;;5.07;100.00
18850;BME280;4989;48.772;9.154;2022-11-21T08:05:10;97120.06;;;5.12;100.00
18850;BME280;4989;48.772;9.154;2022-11-21T08:10:18;97120.94;;;5.05;100.00
18850;BME280;4989;48.772;9.154;2022-11-21T08:15:21;97114.00;;;5.04;100.00
18850;BME280;4989;48.772;9.154;2022-11-21T08:20:23;97108.44;;;5.19;100.00
18850;BME280;4989;48.772;9.154;2022-11-21T08:25:26;97104.16;;;5.48;100.00
18850;BME280;4989;48.772;9.154;2022-11-21T08:30:29;97092.03;;;6.27;100.00
18850;BME280;4989;48.772;9.154;2022-11-21T08:35:31;97101.25;;;7.06;100.00
18850;BME280;4989;48.772;9.154;2022-11-21T08:40:36;97106.38;;;7.17;100.00
18850;BME280;4989;48.772;9.154;2022-11-21T08:45:38;97108.69;;;7.84;100.00
18850;BME280;4989;48.772;9.154;2022-11-21T08:50:41;97107.75;;;7.08;100.00
18850;BME280;4989;48.772;9.154;2022-11-21T08:55:44;97098.09;;;6.71;100.00
18850;BME280;4989;48.772;9.154;2022-11-21T09:00:46;97093.25;;;6.82;100.00
18850;BME280;4989;48.772;9.154;2022-11-21T09:05:49;97092.56;;;6.78;100.00
18850;BME280;4989;48.772;9.154;2022-11-21T09:10:52;97085.56;;;7.17;100.00
18850;BME280;4989;48.772;9.154;2022-11-21T09:15:58;97080.75;;;7.25;100.00
18850;BME280;4989;48.772;9.154;2022-11-21T09:21:34;97073.22;;;7.16;100.00
18850;BME280;4989;48.772;9.154;2022-11-21T09:26:36;97077.09;;;7.31;100.00
18850;BME280;4989;48.772;9.154;2022-11-21T09:31:39;97076.94;;;7.55;100.00
18850;BME280;4989;48.772;9.154;2022-11-21T09:36:42;97077.56;;;7.92;100.00
18850;BME280;4989;48.772;9.154;2022-11-21T09:47:28;97071.78;;;8.64;100.00
18850;BME280;4989;48.772;9.154;2022-11-21T09:52:36;97070.50;;;8.94;100.00
18850;BME280;4989;48.772;9.154;2022-11-21T09:57:40;97059.47;;;9.14;100.00
18850;BME280;4989;48.772;9.154;2022-11-21T10:02:43;97046.88;;;9.21;100.00
18850;BME280;4989;48.772;9.154;2022-11-21T10:07:46;97027.94;;;9.55;100.00
18850;BME280;4989;48.772;9.154;2022-11-21T10:34:34;96979.88;;;9.08;99.76
18850;BME280;4989;48.772;9.154;2022-11-21T10:39:45;96986.09;;;9.78;97.10
18850;BME280;4989;48.772;9.154;2022-11-21T10:44:50;96980.06;;;9.27;95.59
18850;BME280;4989;48.772;9.154;2022-11-21T10:55:57;96949.69;;;10.11;94.45
18850;BME280;4989;48.772;9.154;2022-11-21T11:01:00;96939.06;;;9.59;94.31
18850;BME280;4989;48.772;9.154;2022-11-21T11:06:03;96936.03;;;9.23;95.32
18850;BME280;4989;48.772;9.154;2022-11-21T11:11:11;96918.19;;;11.03;93.99
18850;BME280;4989;48.772;9.154;2022-11-21T11:16:17;96903.25;;;11.72;82.67
18850;BME280;4989;48.772;9.154;2022-11-21T11:21:23;96902.22;;;10.24;81.12
18850;BME280;4989;48.772;9.154;2022-11-21T11:26:28;96892.41;;;10.58;81.80
18850;BME280;4989;48.772;9.154;2022-11-21T11:31:40;96889.78;;;9.83;82.96
18850;BME280;4989;48.772;9.154;2022-11-21T11:47:36;96855.13;;;17.54;55.30
18850;BME280;4989;48.772;9.154;2022-11-21T11:52:58;96840.97;;;17.83;51.86
18850;BME280;4989;48.772;9.154;2022-11-21T11:58:54;96845.31;;;14.47;61.01
18850;BME280;4989;48.772;9.154;2022-11-21T12:09:06;96836.09;;;13.65;62.34
18850;BME280;4989;48.772;9.154;2022-11-21T12:14:35;96834.94;;;11.61;69.29
18850;BME280;4989;48.772;9.154;2022-11-21T12:19:58;96826.06;;;10.28;74.77
18850;BME280;4989;48.772;9.154;2022-11-21T12:25:00;96816.13;;;10.34;79.98
18850;BME280;4989;48.772;9.154;2022-11-21T12:52:32;96743.63;;;11.60;73.71
18850;BME280;4989;48.772;9.154;2022-11-21T13:03:20;96717.50;;;10.92;71.94
18850;BME280;4989;48.772;9.154;2022-11-21T13:08:30;96694.88;;;11.38;76.22
18850;BME280;4989;48.772;9.154;2022-11-21T13:13:36;96692.38;;;11.07;70.35
18850;BME280;4989;48.772;9.154;2022-11-21T13:18:45;96693.03;;;10.37;73.51
18850;BME280;4989;48.772;9.154;2022-11-21T13:23:49;96691.72;;;10.01;75.97
18850;BME280;4989;48.772;9.154;2022-11-21T13:29:09;96671.56;;;10.12;75.60
18850;BME280;4989;48.772;9.154;2022-11-21T13:34:33;96667.34;;;10.20;74.65
18850;BME280;4989;48.772;9.154;2022-11-21T13:39:37;96659.84;;;10.51;73.71
18850;BME280;4989;48.772;9.154;2022-11-21T13:44:42;96660.44;;;10.37;73.76
18850;BME280;4989;48.772;9.154;2022-11-21T14:11:19;96627.38;;;10.66;73.15
18850;BME280;4989;48.772;9.154;2022-11-21T14:16:28;96607.28;;;9.90;71.16
18850;BME280;4989;48.772;9.154;2022-11-21T14:21:35;96609.19;;;9.62;70.63
18850;BME280;4989;48.772;9.154;2022-11-21T14:26:49;96600.56;;;9.45;72.29
18850;BME280;4989;48.772;9.154;2022-11-21T14:31:53;96595.44;;;9.38;72.83
18850;BME280;4989;48.772;9.154;2022-11-21T14:37:02;96590.84;;;9.26;74.22
18850;BME280;4989;48.772;9.154;2022-11-21T14:42:11;96589.13;;;9.41;74.56
18850;BME280;4989;48.772;9.154;2022-11-21T14:47:20;96568.94;;;9.42;74.91
18850;BME280;4989;48.772;9.154;2022-11-21T14:52:29;96568.00;;;9.36;75.48
18850;BME280;4989;48.772;9.154;2022-11-21T14:57:37;96554.72;;;9.29;76.76
18850;BME280;4989;48.772;9.154;2022-11-21T15:02:40;96536.97;;;9.28;77.69
18850;BME280;4989;48.772;9.154;2022-11-21T15:07:44;96512.28;;;9.35;77.79
18850;BME280;4989;48.772;9.154;2022-11-21T15:12:57;96503.88;;;9.60;76.89
18850;BME280;4989;48.772;9.154;2022-11-21T15:18:03;96467.84;;;9.32;78.17
18850;BME280;4989;48.772;9.154;2022-11-21T15:23:34;96462.44;;;9.42;78.49
18850;BME280;4989;48.772;9.154;2022-11-21T15:28:37;96450.97;;;9.47;78.56
18850;BME280;4989;48.772;9.154;2022-11-21T15:33:54;96440.00;;;9.41;79.62
18850;BME280;4989;48.772;9.154;2022-11-21T15:39:21;96417.50;;;9.13;81.38
18850;BME280;4989;48.772;9.154;2022-11-21T15:44:27;96398.69;;;8.91;85.42
18850;BME280;4989;48.772;9.154;2022-11-21T15:49:30;96387.69;;;8.94;81.52
18850;BME280;4989;48.772;9.154;2022-11-21T15:54:52;96369.94;;;9.12;81.79
18850;BME280;4989;48.772;9.154;2022-11-21T15:59:55;96365.25;;;8.85;87.02
18850;BME280;4989;48.772;9.154;2022-11-21T16:04:57;96355.72;;;8.62;87.50
18850;BME280;4989;48.772;9.154;2022-11-21T16:10:00;96351.03;;;8.53;86.11
18850;BME280;4989;48.772;9.154;2022-11-21T16:15:02;96351.34;;;8.46;87.77
18850;BME280;4989;48.772;9.154;2022-11-21T16:20:05;96341.78;;;8.73;85.94
18850;BME280;4989;48.772;9.154;2022-11-21T16:25:08;96339.97;;;8.69;82.66
18850;BME280;4989;48.772;9.154;2022-11-21T16:30:11;96321.44;;;8.77;82.63
18850;BME280;4989;48.772;9.154;2022-11-21T16:35:14;96304.44;;;8.95;81.12
18850;BME280;4989;48.772;9.154;2022-11-21T16:40:16;96283.38;;;8.99;81.53
18850;BME280;4989;48.772;9.154;2022-11-21T16:45:19;96288.94;;;8.77;81.54
18850;BME280;4989;48.772;9.154;2022-11-21T16:50:22;96300.47;;;8.41;82.77
18850;BME280;4989;48.772;9.154;2022-11-21T16:55:24;96286.13;;;8.22;87.21
18850;BME280;4989;48.772;9.154;2022-11-21T17:00:27;96273.13;;;8.48;82.80
18850;BME280;4989;48.772;9.154;2022-11-21T17:05:30;96271.03;;;8.61;83.47
18850;BME280;4989;48.772;9.154;2022-11-21T17:10:32;96272.84;;;8.64;80.74
18850;BME280;4989;48.772;9.154;2022-11-21T17:15:35;96258.41;;;8.67;80.06
18850;BME280;4989;48.772;9.154;2022-11-21T17:20:37;96260.19;;;8.43;78.57
18850;BME280;4989;48.772;9.154;2022-11-21T17:25:40;96242.41;;;8.23;79.83
18850;BME280;4989;48.772;9.154;2022-11-21T17:30:42;96252.28;;;8.08;80.01
18850;BME280;4989;48.772;9.154;2022-11-21T17:35:45;96243.59;;;8.22;79.07
18850;BME280;4989;48.772;9.154;2022-11-21T17:40:58;96206.97;;;8.40;78.30
18850;BME280;4989;48.772;9.154;2022-11-21T17:46:03;96215.97;;;8.55;78.87
18850;BME280;4989;48.772;9.154;2022-11-21T17:51:13;96221.16;;;7.94;81.86
18850;BME280;4989;48.772;9.154;2022-11-21T17:56:18;96207.31;;;7.92;81.09
18850;BME280;4989;48.772;9.154;2022-11-21T18:01:25;96195.63;;;8.14;81.31
18850;BME280;4989;48.772;9.154;2022-11-21T18:06:36;96191.88;;;8.11;81.14
18850;BME280;4989;48.772;9.154;2022-11-21T18:11:42;96182.16;;;8.41;80.30
18850;BME280;4989;48.772;9.154;2022-11-21T18:16:45;96190.53;;;8.25;79.57
18850;BME280;4989;48.772;9.154;2022-11-21T18:21:54;96179.88;;;8.40;79.61
18850;BME280;4989;48.772;9.154;2022-11-21T18:26:57;96175.38;;;8.55;79.13
18850;BME280;4989;48.772;9.154;2022-11-21T18:31:59;96183.47;;;8.27;80.19
18850;BME280;4989;48.772;9.154;2022-11-21T18:37:01;96193.97;;;8.16;81.08
18850;BME280;4989;48.772;9.154;2022-11-21T18:42:04;96192.16;;;8.04;81.75
18850;BME280;4989;48.772;9.154;2022-11-21T18:47:06;96184.84;;;8.32;80.64
18850;BME280;4989;48.772;9.154;2022-11-21T18:52:24;96178.97;;;8.43;79.28
18850;BME280;4989;48.772;9.154;2022-11-21T18:57:26;96167.81;;;8.32;80.13
18850;BME280;4989;48.772;9.154;2022-11-21T19:02:29;96162.72;;;8.06;82.19
18850;BME280;4989;48.772;9.154;2022-11-21T19:07:31;96153.38;;;8.25;81.04
18850;BME280;4989;48.772;9.154;2022-11-21T19:12:34;96151.88;;;8.06;81.85
18850;BME280;4989;48.772;9.154;2022-11-21T19:17:41;96143.78;;;8.06;82.49
18850;BME280;4989;48.772;9.154;2022-11-21T19:22:43;96144.97;;;8.14;81.90
18850;BME280;4989;48.772;9.154;2022-11-21T19:27:46;96126.94;;;8.11;81.75
18850;BME280;4989;48.772;9.154;2022-11-21T19:32:49;96120.16;;;8.07;82.59
18850;BME280;4989;48.772;9.154;2022-11-21T19:37:51;96122.13;;;8.06;82.48
18850;BME280;4989;48.772;9.154;2022-11-21T19:42:54;96121.97;;;8.19;81.77
18850;BME280;4989;48.772;9.154;2022-11-21T19:47:57;96116.13;;;8.39;80.95
18850;BME280;4989;48.772;9.154;2022-11-21T19:53:03;96114.59;;;8.29;81.73
18850;BME280;4989;48.772;9.154;2022-11-21T19:58:05;96114.03;;;8.43;80.86
18850;BME280;4989;48.772;9.154;2022-11-21T20:03:08;96106.78;;;8.12;81.73
18850;BME280;4989;48.772;9.154;2022-11-21T20:08:11;96109.81;;;7.96;83.52
18850;BME280;4989;48.772;9.154;2022-11-21T20:13:19;96110.41;;;7.91;83.02
18850;BME280;4989;48.772;9.154;2022-11-21T20:18:22;96109.66;;;7.81;83.24
18850;BME280;4989;48.772;9.154;2022-11-21T20:23:24;96115.81;;;7.82;83.33
18850;BME280;4989;48.772;9.154;2022-11-21T20:28:27;96120.91;;;7.89;84.43
18850;BME280;4989;48.772;9.154;2022-11-21T20:33:34;96116.13;;;7.93;84.02
18850;BME280;4989;48.772;9.154;2022-11-21T20:38:37;96122.69;;;7.83;84.51
18850;BME280;4989;48.772;9.154;2022-11-21T20:43:39;96129.88;;;7.67;85.14
18850;BME280;4989;48.772;9.154;2022-11-21T20:49:01;96125.22;;;7.58;86.29
18850;BME280;4989;48.772;9.154;2022-11-21T20:54:04;96107.91;;;7.47;87.64
18850;BME280;4989;48.772;9.154;2022-11-21T20:59:07;96099.22;;;7.52;88.15
18850;BME280;4989;48.772;9.154;2022-11-21T21:04:09;96107.94;;;7.65;88.17
18850;BME280;4989;48.772;9.154;2022-11-21T21:09:14;96109.81;;;7.96;87.12
18850;BME280;4989;48.772;9.154;2022-11-21T21:14:17;96098.50;;;8.25;84.82
18850;BME280;4989;48.772;9.154;2022-11-21T21:19:23;96093.59;;;8.05;84.74
18850;BME280;4989;48.772;9.154;2022-11-21T21:24:25;96085.47;;;8.05;85.47
18850;BME280;4989;48.772;9.154;2022-11-21T21:29:28;96083.50;;;7.87;86.08
18850;BME280;4989;48.772;9.154;2022-11-21T21:34:31;96085.91;;;7.76;87.21
18850;BME280;4989;48.772;9.154;2022-11-21T21:39:34;96092.78;;;7.68;88.28
18850;BME280;4989;48.772;9.154;2022-11-21T21:44:40;96079.72;;;7.66;88.61
18850;BME280;4989;48.772;9.154;2022-11-21T21:49:42;96080.66;;;7.82;87.77
18850;BME280;4989;48.772;9.154;2022-11-21T21:54:45;96064.41;;;7.72;89.20
18850;BME280;4989;48.772;9.154;2022-11-21T21:59:48;96063.78;;;7.68;88.74
18850;BME280;4989;48.772;9.154;2022-11-21T22:04:50;96079.72;;;7.57;90.49
18850;BME280;4989;48.772;9.154;2022-11-21T22:09:53;96082.44;;;7.57;91.07
18850;BME280;4989;48.772;9.154;2022-11-21T22:14:56;96078.66;;;7.45;91.70
18850;BME280;4989;48.772;9.154;2022-11-21T22:20:00;96087.63;;;7.33;93.25
18850;BME280;4989;48.772;9.154;2022-11-21T22:25:02;96106.38;;;7.27;93.56
18850;BME280;4989;48.772;9.154;2022-11-21T22:30:06;96087.16;;;7.25;94.85
18850;BME280;4989;48.772;9.154;2022-11-21T22:35:11;96096.94;;;7.41;95.75
18850;BME280;4989;48.772;9.154;2022-11-21T22:40:14;96090.34;;;7.33;97.01
18850;BME280;4989;48.772;9.154;2022-11-21T22:45:16;96087.16;;;7.34;97.10
18850;BME280;4989;48.772;9.154;2022-11-21T22:50:19;96094.13;;;7.45;97.95
18850;BME280;4989;48.772;9.154;2022-11-21T22:55:24;96086.59;;;7.40;100.00
18850;BME280;4989;48.772;9.154;2022-11-21T23:00:30;96080.28;;;7.43;100.00
18850;BME280;4989;48.772;9.154;2022-11-21T23:05:34;96078.91;;;7.38;100.00
18850;BME280;4989;48.772;9.154;2022-11-21T23:10:37;96079.94;;;7.31;100.00
18850;BME280;4989;48.772;9.154;2022-11-21T23:15:39;96061.13;;;7.09;100.00
18850;BME280;4989;48.772;9.154;2022-11-21T23:20:42;96032.84;;;7.32;100.00
18850;BME280;4989;48.772;9.154;2022-11-21T23:25:45;96021.44;;;7.56;100.00
18850;BME280;4989;48.772;9.154;2022-11-21T23:30:48;96020.50;;;7.31;100.00
18850;BME280;4989;48.772;9.154;2022-11-21T23:35:51;96035.97;;;7.31;100.00
18850;BME280;4989;48.772;9.154;2022-11-21T23:40:53;96036.75;;;7.41;100.00
18850;BME280;4989;48.772;9.154;2022-11-21T23:45:56;96043.69;;;7.69;100.00
18850;BME280;4989;48.772;9.154;2022-11-21T23:50:59;96042.47;;;7.70;100.00
18850;BME280;4989;48.772;9.154;2022-11-21T23:56:01;96045.31;;;7.48;100.00
